createdAt,value
2022-11-29T00:00:53.612Z,15.65
2022-11-29T00:05:53.293Z,17.95
2022-11-29T00:10:52.177Z,15.95
2022-11-29T00:15:51.035Z,18.27
2022-11-29T00:20:49.928Z,16.60
2022-11-29T00:25:48.750Z,17.33
2022-11-29T00:30:47.549Z,17.25
2022-11-29T00:35:46.241Z,17.73
2022-11-29T00:40:45.143Z,17.90
2022-11-29T00:45:44.168Z,17.20
2022-11-29T00:50:42.985Z,18.40
2022-11-29T00:55:43.970Z,15.70
2022-11-29T01:00:43.022Z,18.33
2022-11-29T01:05:43.024Z,17.90
2022-11-29T01:10:42.597Z,16.65
2022-11-29T01:15:42.158Z,17.58
2022-11-29T01:20:41.181Z,19.25
2022-11-29T01:25:39.922Z,17.10
2022-11-29T01:30:38.713Z,16.90
2022-11-29T01:35:37.639Z,18.33
2022-11-29T01:40:36.348Z,16.83
2022-11-29T01:45:38.410Z,18.10
2022-11-29T01:50:39.832Z,18.58
2022-11-29T01:55:40.837Z,18.30
2022-11-29T02:00:40.099Z,18.27
2022-11-29T02:05:43.315Z,18.48
2022-11-29T02:10:54.273Z,19.58
2022-11-29T02:16:10.697Z,17.55
2022-11-29T02:21:21.903Z,19.38
2022-11-29T02:26:42.697Z,17.25
2022-11-29T02:32:00.251Z,18.70
2022-11-29T02:36:59.022Z,17.95
2022-11-29T02:42:16.672Z,17.60
2022-11-29T02:47:55.333Z,19.00
2022-11-29T02:53:00.431Z,18.67
2022-11-29T02:58:20.849Z,19.20
2022-11-29T03:03:27.043Z,18.60
2022-11-29T03:08:47.316Z,20.77
2022-11-29T03:14:08.005Z,19.75
2022-11-29T03:19:21.956Z,18.42
2022-11-29T03:24:42.647Z,17.90
2022-11-29T03:29:51.259Z,18.48
2022-11-29T03:34:55.680Z,19.95
2022-11-29T03:40:03.514Z,17.40
2022-11-29T03:45:09.213Z,18.80
2022-11-29T03:50:20.722Z,16.45
2022-11-29T03:55:22.383Z,18.40
2022-11-29T04:00:21.668Z,19.60
2022-11-29T04:05:44.601Z,18.08
2022-11-29T04:11:01.682Z,18.13
2022-11-29T04:16:09.769Z,17.88
2022-11-29T04:21:20.955Z,17.30
2022-11-29T04:26:35.327Z,18.67
2022-11-29T04:31:52.905Z,17.15
2022-11-29T04:37:05.448Z,18.45
2022-11-29T04:42:26.159Z,17.70
2022-11-29T04:47:44.292Z,18.05
2022-11-29T04:52:52.343Z,16.92
2022-11-29T04:58:21.016Z,18.10
2022-11-29T05:03:36.068Z,16.63
2022-11-29T05:08:56.445Z,18.55
2022-11-29T05:14:04.867Z,19.02
2022-11-29T05:19:22.839Z,20.30
2022-11-29T05:24:31.161Z,18.05
2022-11-29T05:30:07.331Z,17.20
2022-11-29T05:35:27.314Z,16.23
2022-11-29T05:40:41.343Z,13.85
2022-11-29T05:45:58.478Z,16.27
2022-11-29T05:51:19.150Z,16.45
2022-11-29T05:56:24.098Z,16.23
2022-11-29T06:01:47.688Z,17.27
2022-11-29T06:07:00.747Z,16.70
2022-11-29T06:12:06.847Z,16.90
2022-11-29T06:17:48.912Z,16.38
2022-11-29T06:22:59.193Z,17.08
2022-11-29T06:28:32.325Z,17.25
2022-11-29T06:33:58.127Z,17.08
2022-11-29T06:38:57.013Z,17.63
2022-11-29T06:43:56.524Z,17.35
2022-11-29T06:49:27.132Z,24.88
2022-11-29T06:54:46.602Z,16.30
2022-11-29T06:59:57.756Z,16.50
2022-11-29T07:05:21.556Z,15.80
2022-11-29T07:10:21.415Z,17.70
2022-11-29T07:15:22.864Z,16.60
2022-11-29T07:20:43.715Z,17.15
2022-11-29T07:26:03.881Z,15.40
2022-11-29T07:31:09.858Z,16.13
2022-11-29T07:36:13.887Z,15.63
2022-11-29T07:41:48.495Z,15.77
2022-11-29T07:46:47.511Z,14.70
2022-11-29T07:51:46.602Z,16.33
2022-11-29T07:56:45.816Z,15.68
2022-11-29T08:01:45.158Z,15.65
2022-11-29T08:06:43.935Z,15.90
2022-11-29T08:11:42.907Z,15.38
2022-11-29T08:16:41.876Z,16.13
2022-11-29T08:21:45.049Z,14.32
2022-11-29T08:26:44.180Z,14.30
2022-11-29T08:31:43.150Z,14.23
2022-11-29T08:36:42.155Z,12.95
2022-11-29T08:41:41.134Z,13.68
2022-11-29T08:46:58.657Z,12.00
2022-11-29T08:52:17.531Z,11.73
2022-11-29T08:57:39.332Z,12.30
2022-11-29T09:02:37.269Z,11.95
2022-11-29T09:07:36.327Z,11.57
2022-11-29T09:12:36.759Z,12.77
2022-11-29T09:17:35.674Z,10.02
2022-11-29T09:22:34.519Z,13.18
2022-11-29T09:27:33.439Z,11.25
2022-11-29T09:32:32.199Z,12.70
2022-11-29T09:37:31.211Z,12.15
2022-11-29T09:42:49.471Z,11.48
2022-11-29T09:48:11.284Z,13.15
2022-11-29T09:53:19.349Z,11.82
2022-11-29T09:58:26.252Z,12.00
2022-11-29T10:03:31.672Z,11.60
2022-11-29T10:08:47.026Z,11.48
2022-11-29T10:13:52.288Z,11.63
2022-11-29T10:19:03.825Z,13.00
2022-11-29T10:24:14.872Z,12.02
2022-11-29T10:29:15.915Z,12.88
2022-11-29T10:34:21.240Z,13.48
2022-11-29T10:39:25.343Z,12.27
2022-11-29T10:44:25.045Z,13.68
2022-11-29T10:49:28.241Z,12.23
2022-11-29T10:54:33.986Z,13.68
2022-11-29T10:59:33.389Z,13.75
2022-11-29T11:04:36.637Z,13.30
2022-11-29T11:09:39.373Z,14.27
2022-11-29T11:14:39.014Z,13.63
2022-11-29T11:19:38.009Z,12.38
2022-11-29T11:24:41.416Z,13.15
2022-11-29T11:34:54.684Z,12.32
2022-11-29T11:40:00.279Z,12.15
2022-11-29T11:45:00.824Z,12.00
2022-11-29T11:50:03.476Z,14.48
2022-11-29T11:55:07.444Z,12.55
2022-11-29T12:00:07.470Z,12.20
2022-11-29T12:05:18.470Z,13.68
2022-11-29T12:10:22.697Z,11.32
2022-11-29T12:15:38.644Z,13.65
2022-11-29T12:20:45.281Z,12.18
2022-11-29T12:26:05.855Z,14.73
2022-11-29T12:31:37.149Z,14.25
2022-11-29T12:36:57.628Z,14.63
2022-11-29T12:42:05.766Z,13.55
2022-11-29T12:47:36.059Z,13.88
2022-11-29T12:53:04.834Z,14.05
2022-11-29T12:58:29.637Z,13.25
2022-11-29T13:03:44.310Z,13.45
2022-11-29T13:09:27.936Z,14.60
2022-11-29T13:14:42.738Z,15.63
2022-11-29T13:19:58.730Z,15.63
2022-11-29T13:25:15.229Z,15.70
2022-11-29T13:30:16.129Z,15.55
2022-11-29T13:35:15.039Z,15.43
2022-11-29T13:40:46.404Z,17.10
2022-11-29T13:46:01.424Z,14.90
2022-11-29T13:51:25.972Z,17.52
2022-11-29T13:56:46.510Z,15.43
2022-11-29T14:01:51.230Z,15.02
2022-11-29T14:07:01.135Z,18.92
2022-11-29T14:12:32.712Z,17.35
2022-11-29T14:17:53.426Z,16.40
2022-11-29T14:23:04.595Z,16.30
2022-11-29T14:28:23.609Z,16.23
2022-11-29T14:33:44.130Z,18.17
2022-11-29T14:38:57.062Z,17.15
2022-11-29T14:44:14.495Z,16.25
2022-11-29T14:49:23.123Z,17.20
2022-11-29T14:54:22.248Z,18.17
2022-11-29T14:59:48.958Z,16.27
2022-11-29T15:04:51.760Z,17.05
2022-11-29T15:09:51.202Z,17.75
2022-11-29T15:15:01.318Z,18.55
2022-11-29T15:20:30.158Z,17.17
2022-11-29T15:25:32.027Z,17.58
2022-11-29T15:30:42.378Z,19.23
2022-11-29T15:35:49.950Z,18.85
2022-11-29T15:40:54.838Z,19.15
2022-11-29T15:45:55.821Z,18.70
2022-11-29T15:51:14.461Z,19.33
2022-11-29T15:56:19.197Z,17.70
2022-11-29T16:01:21.775Z,19.88
2022-11-29T16:06:27.474Z,18.45
2022-11-29T16:11:31.541Z,18.42
2022-11-29T16:16:34.463Z,18.50
2022-11-29T16:21:33.393Z,19.83
2022-11-29T16:26:43.950Z,18.83
2022-11-29T16:31:42.787Z,18.45
2022-11-29T16:36:41.817Z,20.85
2022-11-29T16:41:40.618Z,19.30
2022-11-29T16:46:40.082Z,20.67
2022-11-29T16:51:48.534Z,18.35
2022-11-29T16:56:47.617Z,17.55
2022-11-29T17:01:46.471Z,16.73
2022-11-29T17:06:45.792Z,17.50
2022-11-29T17:11:44.883Z,18.70
2022-11-29T17:16:43.924Z,16.80
2022-11-29T17:21:42.768Z,18.25
2022-11-29T17:26:43.393Z,17.55
2022-11-29T17:31:46.239Z,18.98
2022-11-29T17:36:45.409Z,18.40
2022-11-29T17:41:44.229Z,12.90
2022-11-29T17:46:43.099Z,15.00
2022-11-29T17:51:57.204Z,19.08
2022-11-29T17:56:56.253Z,18.65
2022-11-29T18:01:55.105Z,19.08
2022-11-29T18:06:54.074Z,19.40
2022-11-29T18:11:52.937Z,19.83
2022-11-29T18:16:52.060Z,21.73
2022-11-29T18:21:51.777Z,18.52
2022-11-29T18:26:50.715Z,16.63
2022-11-29T18:31:49.714Z,18.67
2022-11-29T18:36:50.955Z,17.65
2022-11-29T18:41:50.872Z,19.08
2022-11-29T18:46:49.857Z,19.67
2022-11-29T18:51:50.041Z,19.83
2022-11-29T18:56:50.836Z,20.50
2022-11-29T19:01:49.658Z,19.95
2022-11-29T19:06:49.038Z,20.92
2022-11-29T19:11:51.134Z,19.83
2022-11-29T19:16:50.419Z,19.17
2022-11-29T19:21:49.400Z,18.35
2022-11-29T19:26:49.120Z,17.10
2022-11-29T19:31:48.023Z,19.67
2022-11-29T19:36:46.990Z,20.75
2022-11-29T19:41:47.706Z,20.60
2022-11-29T19:46:48.921Z,21.85
2022-11-29T19:51:47.958Z,20.60
2022-11-29T19:56:46.713Z,19.98
2022-11-29T20:01:46.246Z,20.23
2022-11-29T20:06:44.982Z,21.10
2022-11-29T20:11:44.952Z,21.65
2022-11-29T20:16:44.769Z,22.45
2022-11-29T20:21:48.371Z,21.48
2022-11-29T20:26:49.408Z,19.92
2022-11-29T20:31:50.944Z,20.80
2022-11-29T20:37:19.739Z,20.95
2022-11-29T20:42:37.348Z,19.33
2022-11-29T20:47:45.106Z,20.65
2022-11-29T20:53:02.156Z,20.05
2022-11-29T20:58:02.231Z,20.00
2022-11-29T21:03:01.199Z,19.83
2022-11-29T21:08:00.012Z,18.90
2022-11-29T21:12:59.210Z,19.50
2022-11-29T21:17:58.570Z,20.73
2022-11-29T21:23:22.814Z,19.20
2022-11-29T21:28:29.085Z,18.98
2022-11-29T21:33:28.175Z,18.15
2022-11-29T21:38:27.253Z,19.48
2022-11-29T21:43:57.848Z,17.73
2022-11-29T21:48:45.102Z,18.92
2022-11-29T21:53:43.902Z,18.17
2022-11-29T21:58:42.914Z,19.08
2022-11-29T22:03:42.708Z,18.05
2022-11-29T22:08:42.401Z,16.13
2022-11-29T22:14:01.609Z,18.30
2022-11-29T22:19:00.714Z,19.35
2022-11-29T22:23:59.583Z,16.45
2022-11-29T22:28:58.494Z,16.60
2022-11-29T22:33:57.864Z,16.08
2022-11-29T22:38:56.684Z,17.92
2022-11-29T22:43:55.739Z,17.30
2022-11-29T22:48:56.016Z,17.33
2022-11-29T22:53:57.019Z,16.05
2022-11-29T22:58:59.875Z,17.00
2022-11-29T23:04:04.021Z,18.88
2022-11-29T23:09:11.875Z,16.88
2022-11-29T23:14:10.882Z,16.58
2022-11-29T23:19:09.689Z,16.10
2022-11-29T23:24:09.478Z,18.23
2022-11-29T23:29:10.787Z,16.45
2022-11-29T23:34:09.676Z,17.35
2022-11-29T23:39:08.507Z,17.85
2022-11-29T23:44:08.725Z,17.77
2022-11-29T23:49:07.476Z,17.65
2022-11-29T23:54:06.324Z,17.73
2022-11-29T23:59:05.257Z,18.13
